Time;durP1;ratioP1;P1;durP2;ratioP2;P2;SDS_P1;SDS_P2;PMS_P1;PMS_P2;Temp;Humidity;BMP_temperature;BMP_pressure;BME280_temperature;BME280_humidity;BME280_pressure;Samples;Min_cycle;Max_cycle;Signal;HPM_P1;HPM_P2
2020/12/18 00:02:08;;;;;;;121.45;41.45;;;6.10;94.70;;;;;;5107708;28;20163;-84
2020/12/18 00:04:46;;;;;;;118.97;41.70;;;6.10;94.70;;;;;;5107091;28;21089;-84
2020/12/18 00:07:33;;;;;;;107.53;40.22;;;6.10;94.60;;;;;;5105490;28;20167;-84
2020/12/18 00:10:11;;;;;;;120.25;42.17;;;6.10;94.50;;;;;;5107686;28;20660;-84
2020/12/18 00:12:53;;;;;;;134.00;43.55;;;6.10;94.40;;;;;;5107111;28;20172;-84
2020/12/18 00:15:35;;;;;;;122.90;45.63;;;6.10;94.40;;;;;;5107862;28;20195;-84
2020/12/18 00:18:18;;;;;;;123.53;43.75;;;6.10;94.40;;;;;;5107130;28;20160;-84
2020/12/18 00:20:48;;;;;;;137.50;45.83;;;6.10;94.30;;;;;;5104969;28;20183;-84
2020/12/18 00:23:26;;;;;;;134.30;44.53;;;6.10;94.20;;;;;;5104946;28;20266;-84
2020/12/18 00:26:13;;;;;;;126.00;44.75;;;6.10;94.20;;;;;;5107084;28;20191;-84
2020/12/18 00:28:41;;;;;;;126.85;44.33;;;6.10;94.30;;;;;;5106825;28;21015;-84
2020/12/18 00:31:07;;;;;;;135.45;46.83;;;6.00;94.30;;;;;;5107279;28;20274;-84
2020/12/18 00:33:44;;;;;;;156.87;47.00;;;6.00;94.30;;;;;;5107137;28;20714;-84
2020/12/18 00:39:15;;;;;;;155.93;48.90;;;6.00;94.40;;;;;;5106244;28;20591;-84
2020/12/18 00:41:59;;;;;;;159.60;49.75;;;6.00;94.50;;;;;;5106677;28;20168;-84
2020/12/18 00:44:27;;;;;;;183.93;49.90;;;6.00;94.50;;;;;;5106955;28;20172;-84
2020/12/18 00:47:04;;;;;;;150.15;47.55;;;6.00;94.60;;;;;;5085164;28;20179;-83
2020/12/18 00:49:55;;;;;;;174.90;52.30;;;6.00;94.50;;;;;;5084690;28;20239;-84
2020/12/18 00:52:32;;;;;;;139.40;45.58;;;6.00;94.50;;;;;;5086115;28;20157;-85
2020/12/18 00:55:06;;;;;;;149.35;46.30;;;6.00;94.50;;;;;;5085379;28;20263;-84
2020/12/18 00:57:32;;;;;;;146.38;45.97;;;6.00;94.60;;;;;;5086188;28;20624;-84
2020/12/18 01:00:19;;;;;;;145.07;49.07;;;6.00;94.60;;;;;;5086443;28;20192;-84
2020/12/18 01:02:51;;;;;;;171.80;48.70;;;6.00;95.00;;;;;;5084593;28;20177;-84
2020/12/18 01:05:37;;;;;;;158.05;47.97;;;6.00;94.70;;;;;;5086901;28;20199;-84
2020/12/18 01:08:24;;;;;;;130.90;44.63;;;6.00;94.80;;;;;;5085918;28;20176;-84
2020/12/18 01:11:01;;;;;;;145.52;47.10;;;6.00;94.70;;;;;;5084630;28;20203;-84
2020/12/18 01:13:48;;;;;;;127.15;44.95;;;6.10;94.80;;;;;;5085264;28;20221;-84
2020/12/18 01:16:20;;;;;;;127.13;44.63;;;6.10;94.80;;;;;;5085037;28;20585;-85
2020/12/18 01:19:00;;;;;;;148.52;45.83;;;6.10;94.70;;;;;;5085359;28;20187;-84
2020/12/18 01:21:44;;;;;;;135.95;44.83;;;6.10;94.60;;;;;;5086372;28;20168;-84
2020/12/18 01:24:28;;;;;;;132.30;45.10;;;6.10;94.50;;;;;;5085025;28;20189;-84
2020/12/18 01:27:18;;;;;;;130.95;44.40;;;6.10;94.50;;;;;;5084566;28;20184;-84
2020/12/18 01:29:44;;;;;;;131.90;44.72;;;6.10;94.50;;;;;;5084787;28;20266;-84
2020/12/18 01:32:28;;;;;;;129.03;44.93;;;6.10;94.50;;;;;;5087326;28;20628;-84
2020/12/18 01:34:59;;;;;;;138.90;46.53;;;6.10;94.50;;;;;;5088427;28;20220;-84
2020/12/18 01:37:46;;;;;;;132.73;44.67;;;6.10;94.40;;;;;;5088640;28;20176;-84
2020/12/18 01:40:20;;;;;;;121.55;43.65;;;6.10;94.40;;;;;;5090211;28;20172;-84
2020/12/18 01:42:49;;;;;;;147.95;44.55;;;6.10;94.40;;;;;;5088205;28;20515;-84
2020/12/18 01:45:17;;;;;;;136.88;43.88;;;6.10;94.40;;;;;;5096874;28;20632;-83
2020/12/18 01:47:44;;;;;;;128.05;43.45;;;6.10;94.40;;;;;;5110710;28;20176;-84
2020/12/18 01:50:27;;;;;;;135.27;45.80;;;6.00;94.50;;;;;;5110273;28;20634;-84
2020/12/18 01:52:56;;;;;;;131.68;43.40;;;6.00;94.50;;;;;;5109515;28;20160;-84
2020/12/18 01:55:37;;;;;;;122.10;44.13;;;5.90;94.50;;;;;;5108447;28;20955;-85
2020/12/18 01:58:07;;;;;;;134.88;41.63;;;5.90;94.70;;;;;;5109663;27;20472;-84
2020/12/18 02:00:33;;;;;;;114.90;42.97;;;5.90;94.80;;;;;;5108988;28;20183;-84
2020/12/18 02:02:59;;;;;;;139.60;43.38;;;5.90;94.90;;;;;;5109920;28;20171;-84
2020/12/18 02:05:28;;;;;;;108.97;43.47;;;5.90;94.90;;;;;;5110416;28;20179;-84
2020/12/18 02:08:05;;;;;;;118.95;40.75;;;5.90;95.10;;;;;;5109275;28;20594;-84
2020/12/18 02:10:34;;;;;;;115.95;42.95;;;5.90;95.20;;;;;;5109505;28;20214;-84
2020/12/18 02:13:03;;;;;;;107.45;41.72;;;6.00;95.30;;;;;;5109527;28;20184;-85
2020/12/18 02:15:34;;;;;;;98.90;40.38;;;6.00;95.30;;;;;;5107669;28;20280;-84
2020/12/18 02:18:03;;;;;;;104.32;41.00;;;6.00;95.30;;;;;;5108068;28;20184;-84
2020/12/18 02:20:32;;;;;;;122.22;41.42;;;6.10;95.20;;;;;;5109678;28;20278;-84
2020/12/18 02:23:15;;;;;;;105.55;38.95;;;6.10;95.10;;;;;;5108783;28;20183;-84
2020/12/18 02:25:48;;;;;;;109.55;40.00;;;6.10;95.10;;;;;;5110011;28;20168;-84
2020/12/18 02:28:22;;;;;;;110.32;40.67;;;6.10;94.90;;;;;;5107579;28;20171;-84
2020/12/18 02:30:57;;;;;;;114.57;39.72;;;6.10;94.90;;;;;;5108618;27;20199;-84
2020/12/18 02:33:22;;;;;;;103.57;39.38;;;6.10;94.80;;;;;;5108869;28;20206;-84
2020/12/18 02:35:54;;;;;;;104.43;39.20;;;6.10;94.70;;;;;;5109194;28;20172;-84
2020/12/18 02:38:25;;;;;;;103.50;37.45;;;6.10;94.70;;;;;;5107856;28;20206;-83
2020/12/18 02:40:52;;;;;;;110.30;39.92;;;6.10;94.60;;;;;;5108742;28;20167;-84
2020/12/18 02:43:18;;;;;;;99.90;37.95;;;6.10;94.70;;;;;;5109222;28;20264;-84
2020/12/18 02:45:50;;;;;;;102.68;38.38;;;6.10;94.70;;;;;;5107335;28;20698;-84
2020/12/18 02:48:16;;;;;;;94.78;38.90;;;6.10;94.60;;;;;;5108227;28;20196;-84
2020/12/18 02:50:49;;;;;;;92.35;37.05;;;6.10;94.70;;;;;;5108784;27;20663;-84
2020/12/18 02:53:16;;;;;;;92.70;37.65;;;6.10;94.80;;;;;;5108928;28;20148;-84
2020/12/18 02:55:42;;;;;;;92.20;39.78;;;6.10;94.80;;;;;;5108717;28;20175;-84
2020/12/18 02:58:12;;;;;;;88.78;34.95;;;6.10;94.80;;;;;;5108621;28;20168;-84
2020/12/18 03:00:38;;;;;;;78.47;33.55;;;6.10;94.80;;;;;;5109464;28;20180;-85
2020/12/18 03:03:19;;;;;;;84.88;34.35;;;6.10;94.80;;;;;;5108090;28;20172;-86
2020/12/18 03:05:44;;;;;;;86.22;34.38;;;6.10;94.70;;;;;;5106471;28;20191;-86
2020/12/18 03:08:16;;;;;;;79.33;34.10;;;6.10;94.70;;;;;;5108356;28;20211;-85
2020/12/18 03:10:44;;;;;;;77.72;33.55;;;6.10;94.60;;;;;;5108150;28;20533;-85
2020/12/18 03:13:13;;;;;;;79.43;35.25;;;6.10;94.60;;;;;;5108438;28;20176;-85
2020/12/18 03:15:38;;;;;;;89.07;35.70;;;6.10;94.60;;;;;;5109023;28;20191;-85
2020/12/18 03:18:07;;;;;;;75.73;32.80;;;6.10;94.50;;;;;;5108149;28;20168;-86
2020/12/18 03:20:47;;;;;;;81.90;33.75;;;6.10;94.50;;;;;;5106913;28;20244;-86
2020/12/18 03:23:13;;;;;;;71.93;33.97;;;6.10;94.40;;;;;;5108293;28;20171;-85
2020/12/18 03:25:47;;;;;;;80.30;33.60;;;6.10;94.50;;;;;;5108488;28;20184;-85
2020/12/18 03:28:16;;;;;;;75.15;35.72;;;6.10;94.50;;;;;;5107121;28;20179;-86
2020/12/18 03:30:56;;;;;;;71.97;31.70;;;6.10;94.50;;;;;;5107766;28;20208;-86
2020/12/18 03:33:23;;;;;;;84.78;34.55;;;6.10;94.50;;;;;;5108036;28;20227;-85
2020/12/18 03:35:49;;;;;;;76.47;33.88;;;6.00;94.60;;;;;;5106949;28;20168;-85
2020/12/18 03:38:17;;;;;;;81.97;32.40;;;6.00;94.70;;;;;;5106423;28;20168;-85
2020/12/18 03:40:43;;;;;;;79.85;31.35;;;6.10;94.70;;;;;;5107819;28;20276;-86
2020/12/18 03:43:09;;;;;;;73.33;32.03;;;6.10;94.80;;;;;;5107982;28;20176;-86
2020/12/18 03:45:37;;;;;;;77.47;32.63;;;6.10;94.70;;;;;;5106097;28;20176;-86
2020/12/18 03:48:09;;;;;;;76.20;32.83;;;6.10;94.80;;;;;;5106858;28;20725;-86
2020/12/18 03:50:34;;;;;;;82.47;32.03;;;6.10;94.80;;;;;;5106846;28;20765;-85
2020/12/18 03:53:06;;;;;;;68.20;32.03;;;6.10;94.80;;;;;;5107226;28;20176;-86
2020/12/18 03:55:34;;;;;;;80.95;32.50;;;6.10;94.80;;;;;;5107276;28;20186;-86
2020/12/18 03:58:00;;;;;;;85.05;35.05;;;6.10;94.80;;;;;;5107241;28;20179;-86
2020/12/18 04:00:28;;;;;;;72.83;35.70;;;6.10;94.70;;;;;;5107057;28;20180;-85
2020/12/18 04:02:56;;;;;;;75.35;31.02;;;6.10;94.70;;;;;;5107246;28;20176;-86
2020/12/18 04:05:26;;;;;;;68.32;31.42;;;6.10;94.60;;;;;;5107415;28;20188;-85
2020/12/18 04:07:52;;;;;;;74.32;32.88;;;6.10;94.60;;;;;;5107630;28;20536;-86
2020/12/18 04:10:17;;;;;;;72.60;34.50;;;6.10;94.50;;;;;;5106507;28;20208;-85
2020/12/18 04:12:43;;;;;;;70.27;32.57;;;6.10;94.50;;;;;;5107218;28;20545;-85
2020/12/18 04:15:11;;;;;;;79.50;33.20;;;6.10;94.50;;;;;;5107402;28;20631;-86
2020/12/18 04:17:49;;;;;;;70.05;32.63;;;6.10;94.50;;;;;;5107597;28;20176;-85
2020/12/18 04:20:17;;;;;;;75.93;33.42;;;6.10;94.60;;;;;;5106722;28;20188;-86
2020/12/18 04:22:46;;;;;;;82.10;36.65;;;6.10;94.50;;;;;;5105597;28;20187;-85
2020/12/18 04:25:14;;;;;;;77.25;32.17;;;6.10;94.50;;;;;;5106434;28;20180;-86
2020/12/18 04:27:40;;;;;;;75.65;33.88;;;6.10;94.50;;;;;;5107985;28;20198;-85
2020/12/18 04:30:06;;;;;;;72.40;34.47;;;6.10;94.60;;;;;;5107308;28;20211;-86
2020/12/18 04:32:37;;;;;;;80.80;33.60;;;6.10;94.60;;;;;;5106695;28;20183;-86
2020/12/18 04:35:03;;;;;;;72.25;32.30;;;6.10;94.50;;;;;;5107063;28;20449;-85
2020/12/18 04:37:38;;;;;;;68.63;31.35;;;6.00;94.50;;;;;;5107146;28;20698;-85
2020/12/18 04:40:11;;;;;;;82.20;32.78;;;6.10;94.50;;;;;;5106912;28;20179;-86
2020/12/18 04:42:36;;;;;;;75.80;34.08;;;6.10;94.50;;;;;;5105626;28;20172;-86
2020/12/18 04:45:11;;;;;;;76.70;33.37;;;6.10;94.50;;;;;;5107041;28;20233;-86
2020/12/18 04:47:47;;;;;;;71.32;31.50;;;6.10;94.50;;;;;;5106102;28;20187;-85
2020/12/18 04:50:12;;;;;;;90.00;35.22;;;6.20;94.40;;;;;;5106194;28;20669;-85
2020/12/18 04:52:45;;;;;;;76.17;32.47;;;6.20;94.30;;;;;;5106284;28;20171;-85
2020/12/18 04:55:12;;;;;;;86.18;34.92;;;6.20;94.30;;;;;;5106515;28;20407;-85
2020/12/18 04:57:42;;;;;;;79.05;33.83;;;6.10;94.30;;;;;;5106498;28;20640;-86
2020/12/18 05:00:08;;;;;;;86.38;34.78;;;6.10;94.20;;;;;;5105840;28;20593;-86
2020/12/18 05:02:34;;;;;;;82.15;34.95;;;6.10;94.20;;;;;;5106548;28;20202;-85
2020/12/18 05:05:10;;;;;;;70.32;32.53;;;6.10;94.20;;;;;;5106464;28;20279;-86
2020/12/18 05:07:36;;;;;;;85.10;34.40;;;6.10;94.20;;;;;;5110185;28;20195;-85
2020/12/18 05:10:11;;;;;;;75.45;32.97;;;6.00;94.20;;;;;;5110959;28;20252;-85
2020/12/18 05:12:42;;;;;;;87.78;33.33;;;6.00;94.20;;;;;;5110517;28;20164;-85
2020/12/18 05:15:13;;;;;;;74.75;33.47;;;6.00;94.10;;;;;;5110110;28;20168;-86
2020/12/18 05:17:42;;;;;;;75.65;33.20;;;6.00;94.10;;;;;;5110863;28;20244;-86
2020/12/18 05:20:10;;;;;;;74.53;33.05;;;6.00;94.10;;;;;;5110828;28;20180;-86
2020/12/18 05:22:37;;;;;;;76.45;32.95;;;6.00;94.10;;;;;;5110039;27;20664;-85
2020/12/18 05:25:03;;;;;;;74.88;32.78;;;6.00;94.10;;;;;;5109458;28;20213;-86
2020/12/18 05:27:34;;;;;;;76.47;33.70;;;6.00;94.10;;;;;;5110092;28;20206;-86
2020/12/18 05:30:06;;;;;;;68.88;33.28;;;6.10;94.10;;;;;;5109225;28;20699;-86
2020/12/18 05:32:36;;;;;;;67.75;29.58;;;6.10;94.10;;;;;;5109174;28;20570;-85
2020/12/18 05:35:04;;;;;;;62.92;27.13;;;6.10;94.10;;;;;;5108918;28;20543;-86
2020/12/18 05:37:39;;;;;;;71.25;29.20;;;6.20;94.00;;;;;;5110280;28;20179;-86
2020/12/18 05:40:06;;;;;;;67.97;29.88;;;6.30;93.90;;;;;;5110598;28;20216;-86
2020/12/18 05:42:47;;;;;;;63.33;27.13;;;6.30;94.10;;;;;;5110149;28;20172;-86
2020/12/18 05:45:20;;;;;;;60.58;29.63;;;6.40;93.60;;;;;;5109973;28;20175;-86
2020/12/18 05:48:05;;;;;;;66.82;34.08;;;6.40;93.60;;;;;;5108903;28;20220;-86
2020/12/18 05:50:37;;;;;;;104.65;48.80;;;6.50;93.60;;;;;;5109666;28;20590;-86
2020/12/18 05:53:07;;;;;;;94.45;46.60;;;6.50;93.60;;;;;;5110242;28;20168;-86
2020/12/18 05:55:37;;;;;;;88.65;44.20;;;6.50;93.50;;;;;;5110502;28;20180;-86
2020/12/18 05:58:11;;;;;;;65.30;30.40;;;6.50;93.40;;;;;;5108804;28;20172;-86
2020/12/18 06:00:37;;;;;;;71.70;34.63;;;6.50;93.10;;;;;;5108154;28;20188;-86
2020/12/18 06:03:14;;;;;;;66.35;33.75;;;6.50;93.00;;;;;;5109600;28;20168;-85
2020/12/18 06:05:46;;;;;;;79.70;37.80;;;6.40;92.80;;;;;;5108306;28;20199;-85
2020/12/18 06:08:16;;;;;;;79.05;35.92;;;6.40;92.80;;;;;;5108614;28;20172;-85
2020/12/18 06:10:45;;;;;;;78.78;35.30;;;6.40;92.80;;;;;;5109545;28;20284;-85
2020/12/18 06:13:11;;;;;;;83.35;36.78;;;6.40;92.80;;;;;;5109047;28;20207;-85
2020/12/18 06:15:40;;;;;;;81.77;38.80;;;6.40;92.60;;;;;;5110099;28;20257;-85
2020/12/18 06:18:06;;;;;;;76.35;37.17;;;6.30;92.50;;;;;;5108497;28;20770;-85
2020/12/18 06:20:35;;;;;;;67.77;34.80;;;6.30;92.50;;;;;;5094736;28;20197;-85
2020/12/18 06:23:05;;;;;;;73.45;37.38;;;6.20;92.40;;;;;;5108872;28;20184;-86
2020/12/18 06:25:34;;;;;;;73.97;37.70;;;6.20;92.30;;;;;;5109077;28;20948;-85
2020/12/18 06:28:02;;;;;;;76.50;37.30;;;6.10;92.30;;;;;;5109029;28;20191;-85
2020/12/18 06:30:34;;;;;;;72.18;40.40;;;6.10;92.30;;;;;;5103528;28;20222;-85
2020/12/18 06:33:03;;;;;;;90.57;45.13;;;6.10;92.40;;;;;;5104509;28;20168;-84
2020/12/18 06:35:47;;;;;;;73.25;39.03;;;6.10;92.30;;;;;;5100698;28;20196;-85
2020/12/18 06:38:13;;;;;;;102.75;48.95;;;6.10;92.20;;;;;;5102532;28;20168;-85
2020/12/18 06:40:40;;;;;;;102.47;53.93;;;6.10;92.40;;;;;;5109336;28;20206;-85
2020/12/18 06:43:09;;;;;;;71.68;41.17;;;6.10;92.40;;;;;;5107985;28;20428;-85
2020/12/18 06:45:44;;;;;;;72.22;40.38;;;6.10;92.40;;;;;;5099789;28;20263;-84
2020/12/18 06:48:27;;;;;;;84.60;45.53;;;6.10;92.40;;;;;;5105024;28;20565;-85
2020/12/18 06:50:52;;;;;;;74.95;39.28;;;6.10;92.40;;;;;;5108405;28;20769;-85
2020/12/18 06:53:18;;;;;;;73.33;46.10;;;6.10;92.40;;;;;;5106942;28;20172;-85
2020/12/18 06:55:47;;;;;;;69.20;38.67;;;6.10;92.50;;;;;;5092757;28;20856;-85
2020/12/18 06:58:18;;;;;;;53.60;30.20;;;6.10;92.50;;;;;;5108147;28;20726;-85
2020/12/18 07:01:00;;;;;;;59.78;31.38;;;6.10;92.50;;;;;;5100864;28;20192;-85
2020/12/18 07:03:48;;;;;;;61.10;31.90;;;6.10;92.50;;;;;;5099719;28;20179;-85
2020/12/18 07:06:23;;;;;;;61.15;31.80;;;6.20;92.50;;;;;;5103398;28;20207;-85
2020/12/18 07:09:00;;;;;;;58.63;29.83;;;6.20;92.40;;;;;;5089867;28;20315;-85
2020/12/18 07:11:37;;;;;;;56.80;30.23;;;6.20;92.30;;;;;;5108068;28;20199;-85
2020/12/18 07:14:07;;;;;;;56.75;28.73;;;6.20;92.20;;;;;;5105589;28;20191;-85
2020/12/18 07:16:36;;;;;;;53.30;29.00;;;6.20;91.90;;;;;;5094424;28;20196;-85
2020/12/18 07:19:04;;;;;;;56.53;29.60;;;6.20;91.80;;;;;;5106669;28;20212;-85
2020/12/18 07:21:32;;;;;;;61.22;30.33;;;6.20;91.70;;;;;;5108721;28;20554;-85
2020/12/18 07:24:04;;;;;;;61.47;30.20;;;6.10;91.90;;;;;;5097279;28;20188;-85
2020/12/18 07:26:35;;;;;;;59.63;32.85;;;6.10;91.70;;;;;;5096996;28;20205;-85
2020/12/18 07:29:01;;;;;;;54.50;30.88;;;6.10;91.80;;;;;;5099876;27;20215;-85
2020/12/18 07:31:31;;;;;;;58.17;33.45;;;6.10;92.10;;;;;;5107586;28;20659;-85
2020/12/18 07:34:00;;;;;;;56.33;30.75;;;6.10;91.80;;;;;;5106002;28;20207;-85
2020/12/18 07:36:32;;;;;;;51.78;30.77;;;6.10;92.20;;;;;;5097945;28;20231;-85
2020/12/18 07:38:58;;;;;;;50.20;28.17;;;6.10;91.90;;;;;;5095678;28;20700;-85
2020/12/18 07:41:27;;;;;;;51.63;30.03;;;6.10;91.80;;;;;;5102464;28;20180;-86
2020/12/18 07:43:52;;;;;;;55.90;31.33;;;6.10;91.70;;;;;;5097163;28;20438;-85
2020/12/18 07:46:21;;;;;;;52.90;29.07;;;6.10;91.60;;;;;;5094273;28;20176;-85
2020/12/18 07:48:47;;;;;;;57.65;29.40;;;6.10;91.70;;;;;;5098636;28;20246;-85
2020/12/18 07:51:22;;;;;;;48.47;29.50;;;6.10;91.60;;;;;;5097405;28;20276;-85
2020/12/18 07:53:52;;;;;;;46.63;29.10;;;6.10;91.50;;;;;;5095236;28;20266;-86
2020/12/18 07:56:24;;;;;;;47.83;28.90;;;6.10;91.40;;;;;;5101131;28;20510;-85
2020/12/18 07:58:51;;;;;;;49.85;28.58;;;6.10;91.30;;;;;;5091279;28;20192;-86
2020/12/18 08:01:22;;;;;;;46.47;29.85;;;6.10;91.20;;;;;;5106345;28;20179;-85
2020/12/18 08:03:54;;;;;;;44.85;28.85;;;6.10;91.20;;;;;;5098381;28;20203;-86
2020/12/18 08:06:28;;;;;;;45.30;27.85;;;6.10;91.10;;;;;;5107226;28;20156;-85
2020/12/18 08:09:05;;;;;;;44.55;27.58;;;6.10;91.00;;;;;;5100330;28;20637;-85
2020/12/18 08:11:35;;;;;;;42.58;27.08;;;6.10;91.00;;;;;;5107162;28;20198;-85
2020/12/18 08:14:10;;;;;;;44.95;30.80;;;6.20;90.80;;;;;;5101653;28;20281;-85
2020/12/18 08:16:41;;;;;;;61.70;38.35;;;6.20;90.70;;;;;;5100310;28;20183;-86
2020/12/18 08:19:09;;;;;;;45.88;30.65;;;6.20;90.50;;;;;;5099345;28;20179;-85
2020/12/18 08:21:48;;;;;;;46.00;31.38;;;6.20;90.20;;;;;;5104573;28;20177;-85
2020/12/18 08:24:34;;;;;;;41.65;28.15;;;6.20;90.10;;;;;;5098754;28;20198;-86
2020/12/18 08:27:12;;;;;;;41.88;25.20;;;6.20;90.00;;;;;;5093724;28;20195;-86
2020/12/18 08:29:42;;;;;;;38.45;26.10;;;6.20;89.80;;;;;;5095958;28;20596;-85
2020/12/18 08:32:16;;;;;;;43.15;27.30;;;6.10;89.40;;;;;;5103707;28;20186;-85
2020/12/18 08:34:44;;;;;;;45.20;29.67;;;6.10;89.20;;;;;;5100348;28;20211;-85
2020/12/18 08:37:19;;;;;;;43.13;27.65;;;6.10;89.30;;;;;;5100985;28;20180;-85
2020/12/18 08:39:45;;;;;;;40.50;27.45;;;6.10;89.50;;;;;;5105114;28;20195;-86
2020/12/18 08:42:19;;;;;;;38.93;25.70;;;6.10;89.60;;;;;;5100998;28;20450;-84
2020/12/18 08:44:45;;;;;;;43.50;24.65;;;6.10;89.40;;;;;;5095282;28;20199;-86
2020/12/18 08:47:28;;;;;;;40.88;25.65;;;6.10;89.10;;;;;;5100036;28;20995;-85
2020/12/18 08:50:06;;;;;;;36.30;24.48;;;6.10;88.90;;;;;;5103653;28;20757;-85
2020/12/18 08:52:41;;;;;;;41.90;24.08;;;6.10;88.80;;;;;;5092944;28;20191;-85
2020/12/18 08:55:07;;;;;;;44.20;28.05;;;6.10;88.60;;;;;;5103623;28;20180;-85
2020/12/18 08:57:37;;;;;;;43.90;28.88;;;6.10;88.90;;;;;;5095792;28;20667;-85
2020/12/18 09:00:21;;;;;;;78.25;43.50;;;6.10;89.00;;;;;;5089248;28;20267;-86
2020/12/18 09:03:02;;;;;;;70.85;41.83;;;6.20;89.10;;;;;;5093107;28;20196;-85
2020/12/18 09:05:33;;;;;;;65.20;38.85;;;6.20;89.00;;;;;;5091615;28;20191;-85
2020/12/18 09:08:21;;;;;;;52.33;32.05;;;6.20;88.70;;;;;;5102368;28;20208;-85
2020/12/18 09:10:59;;;;;;;80.97;46.92;;;6.20;88.70;;;;;;5091861;28;20212;-85
2020/12/18 09:13:26;;;;;;;62.17;38.17;;;6.20;88.90;;;;;;5096532;28;20198;-86
2020/12/18 09:16:00;;;;;;;52.72;32.90;;;6.30;88.90;;;;;;5090546;28;20188;-86
2020/12/18 09:18:27;;;;;;;44.90;29.75;;;6.30;88.50;;;;;;5098250;28;20191;-85
2020/12/18 09:21:08;;;;;;;45.80;29.00;;;6.30;88.00;;;;;;5092903;28;20196;-85
2020/12/18 09:23:43;;;;;;;56.10;37.30;;;6.30;87.50;;;;;;5095047;28;20176;-85
2020/12/18 09:26:22;;;;;;;45.35;31.48;;;6.30;87.30;;;;;;5093618;28;20191;-85
2020/12/18 09:28:47;;;;;;;35.80;25.08;;;6.30;87.10;;;;;;5090951;28;20184;-85
2020/12/18 09:31:16;;;;;;;34.87;24.87;;;6.30;87.40;;;;;;5095838;28;20263;-86
2020/12/18 09:33:41;;;;;;;33.40;22.50;;;6.40;87.50;;;;;;5094366;28;20180;-85
2020/12/18 09:36:24;;;;;;;22.73;15.70;;;6.40;87.40;;;;;;5093515;28;20182;-85
2020/12/18 09:39:02;;;;;;;33.50;20.75;;;6.40;86.90;;;;;;5093922;28;20188;-86
2020/12/18 09:41:27;;;;;;;28.65;20.70;;;6.50;86.60;;;;;;5088552;28;20199;-86
2020/12/18 09:44:02;;;;;;;30.50;20.50;;;6.50;87.30;;;;;;5086225;28;20181;-85
2020/12/18 09:46:33;;;;;;;30.20;20.52;;;6.60;86.40;;;;;;5093263;28;20188;-85
2020/12/18 09:49:08;;;;;;;29.10;19.75;;;6.60;86.20;;;;;;5084376;28;20192;-85
2020/12/18 09:51:43;;;;;;;38.33;24.23;;;6.60;86.00;;;;;;5091387;28;20620;-85
2020/12/18 09:54:17;;;;;;;29.10;20.67;;;6.60;85.80;;;;;;5087184;28;20176;-85
2020/12/18 09:56:54;;;;;;;34.75;22.85;;;6.60;85.50;;;;;;5099972;28;20187;-85
2020/12/18 09:59:20;;;;;;;39.80;24.88;;;6.60;85.50;;;;;;5099546;28;20607;-85
2020/12/18 10:02:02;;;;;;;45.30;29.70;;;6.70;85.60;;;;;;5095117;28;20641;-85
2020/12/18 10:04:37;;;;;;;34.53;24.13;;;6.70;85.50;;;;;;5099584;28;20191;-85
2020/12/18 10:07:32;;;;;;;34.08;22.65;;;6.70;85.30;;;;;;5093194;28;20183;-86
2020/12/18 10:10:00;;;;;;;35.25;22.15;;;6.70;85.10;;;;;;5098572;28;20296;-86
2020/12/18 10:12:37;;;;;;;38.03;23.25;;;6.70;85.00;;;;;;5089538;28;20191;-86
2020/12/18 10:15:15;;;;;;;37.58;24.77;;;6.70;85.00;;;;;;5107050;28;20194;-86
2020/12/18 10:18:02;;;;;;;35.47;24.88;;;6.70;84.90;;;;;;5089890;28;20319;-86
2020/12/18 10:20:33;;;;;;;30.63;21.13;;;6.80;84.80;;;;;;5106966;28;20682;-85
2020/12/18 10:23:11;;;;;;;32.53;22.60;;;6.80;84.40;;;;;;5109596;28;20229;-85
2020/12/18 10:25:36;;;;;;;36.35;25.90;;;6.80;84.30;;;;;;5107988;28;20651;-85
2020/12/18 10:28:02;;;;;;;39.33;25.67;;;6.80;84.50;;;;;;5097324;28;20273;-85
2020/12/18 10:30:33;;;;;;;37.13;26.93;;;6.80;84.60;;;;;;5104470;28;20705;-87
2020/12/18 10:33:05;;;;;;;46.05;30.40;;;6.80;84.40;;;;;;5093274;28;20188;-87
2020/12/18 10:35:33;;;;;;;37.55;25.25;;;6.80;84.50;;;;;;5097652;27;20686;-85
2020/12/18 10:38:02;;;;;;;39.83;25.63;;;6.80;84.40;;;;;;5101112;28;20203;-86
2020/12/18 10:40:28;;;;;;;42.13;26.38;;;6.90;84.40;;;;;;5104223;28;20196;-86
2020/12/18 10:42:54;;;;;;;39.63;25.50;;;6.90;84.20;;;;;;5097368;28;20204;-85
2020/12/18 10:45:23;;;;;;;43.25;31.23;;;6.90;83.90;;;;;;5094767;28;20700;-86
2020/12/18 10:48:36;;;;;;;42.95;28.85;;;6.90;84.60;;;;;;5095883;28;20183;-86
2020/12/18 10:51:07;;;;;;;39.67;26.98;;;6.90;84.20;;;;;;5106554;28;20566;-84
2020/12/18 10:53:36;;;;;;;42.55;28.80;;;6.90;84.20;;;;;;5102859;28;20183;-84
2020/12/18 10:56:10;;;;;;;43.53;28.38;;;7.00;84.30;;;;;;5101624;28;20647;-85
2020/12/18 10:58:39;;;;;;;41.63;28.80;;;7.00;84.10;;;;;;5091397;28;20186;-85
2020/12/18 11:01:08;;;;;;;33.28;23.23;;;7.00;84.10;;;;;;5098413;28;20258;-87
2020/12/18 11:04:00;;;;;;;31.73;22.33;;;7.00;84.20;;;;;;5105150;28;20188;-86
2020/12/18 11:06:35;;;;;;;27.23;20.58;;;7.00;83.90;;;;;;5106638;28;20558;-87
2020/12/18 11:09:01;;;;;;;34.33;23.17;;;7.10;83.70;;;;;;5105193;28;20183;-86
2020/12/18 11:11:29;;;;;;;38.80;26.03;;;7.00;83.50;;;;;;5103040;28;20261;-87
2020/12/18 11:14:02;;;;;;;39.40;23.58;;;7.10;83.60;;;;;;5103048;28;20640;-87
2020/12/18 11:16:27;;;;;;;31.02;23.13;;;7.10;83.10;;;;;;5103749;28;20648;-86
2020/12/18 11:18:53;;;;;;;35.93;24.97;;;7.10;83.00;;;;;;5103302;28;20608;-84
2020/12/18 11:21:28;;;;;;;34.20;23.90;;;7.10;82.90;;;;;;5102726;28;20390;-85
2020/12/18 11:24:05;;;;;;;34.45;25.77;;;7.10;82.80;;;;;;5103118;28;20605;-85
2020/12/18 11:26:34;;;;;;;37.60;25.13;;;7.10;82.90;;;;;;5104310;28;20190;-85
2020/12/18 11:29:02;;;;;;;36.90;23.40;;;7.10;82.90;;;;;;5102061;28;20242;-84
2020/12/18 11:31:31;;;;;;;32.55;21.85;;;7.10;82.80;;;;;;5091446;28;20842;-85
2020/12/18 11:33:57;;;;;;;35.30;24.77;;;7.10;82.60;;;;;;5093959;28;20262;-85
2020/12/18 11:36:23;;;;;;;40.60;26.10;;;7.10;82.80;;;;;;5107881;28;20258;-85
2020/12/18 11:38:55;;;;;;;42.40;29.37;;;7.10;82.60;;;;;;5107067;28;20434;-85
2020/12/18 11:41:23;;;;;;;39.63;28.27;;;7.10;82.60;;;;;;5106326;28;20555;-85
2020/12/18 11:43:58;;;;;;;46.47;28.55;;;7.10;82.50;;;;;;5102336;27;20188;-86
2020/12/18 11:46:26;;;;;;;46.80;30.45;;;7.10;82.60;;;;;;5100856;28;20179;-86
2020/12/18 11:48:54;;;;;;;44.65;28.50;;;7.10;82.70;;;;;;5098880;28;20204;-86
2020/12/18 11:51:27;;;;;;;41.17;26.77;;;7.20;82.90;;;;;;5096666;28;20255;-86
2020/12/18 11:53:59;;;;;;;36.13;23.25;;;7.10;83.00;;;;;;5094002;28;20216;-85
2020/12/18 11:56:27;;;;;;;38.97;24.48;;;7.10;82.60;;;;;;5091190;28;20213;-85
2020/12/18 11:58:56;;;;;;;42.97;26.77;;;7.20;82.60;;;;;;5101058;28;20551;-85
2020/12/18 12:01:25;;;;;;;41.53;27.52;;;7.20;82.50;;;;;;5094684;28;20514;-86
2020/12/18 12:04:00;;;;;;;36.33;24.38;;;7.20;82.50;;;;;;5095945;28;20226;-86
2020/12/18 12:06:31;;;;;;;42.47;27.98;;;7.20;82.40;;;;;;5095081;28;20635;-84
2020/12/18 12:09:03;;;;;;;40.97;25.90;;;7.20;82.40;;;;;;5102322;28;20200;-80
2020/12/18 12:11:42;;;;;;;40.75;25.30;;;8.60;96.80;;;;;;5106543;28;20655;-81
2020/12/18 12:14:16;;;;;;;41.92;25.00;;;11.10;65.90;;;;;;5108943;28;20639;-83
2020/12/18 12:16:42;;;;;;;37.35;25.77;;;10.30;77.20;;;;;;5105002;28;20651;-80
2020/12/18 12:19:11;;;;;;;44.20;27.50;;;10.00;70.10;;;;;;5096623;28;20226;-81
2020/12/18 12:21:44;;;;;;;45.67;29.90;;;8.40;75.00;;;;;;5096453;28;20722;-81
2020/12/18 12:24:09;;;;;;;59.92;45.33;;;7.30;81.90;;;;;;5103249;28;20184;-81
2020/12/18 12:26:45;;;;;;;54.63;37.73;;;6.90;85.10;;;;;;5101213;28;20514;-80
2020/12/18 12:29:11;;;;;;;51.70;34.05;;;6.60;87.30;;;;;;5100715;28;20573;-80
2020/12/18 12:31:36;;;;;;;49.53;31.93;;;6.50;88.50;;;;;;5090429;28;20719;-81
2020/12/18 12:34:05;;;;;;;47.77;30.10;;;6.40;88.80;;;;;;5095702;28;20519;-81
2020/12/18 12:36:48;;;;;;;46.80;30.20;;;6.30;87.70;;;;;;5091388;28;20195;-81
2020/12/18 12:39:14;;;;;;;53.38;34.00;;;6.30;88.90;;;;;;5099498;28;20229;-81
2020/12/18 12:41:40;;;;;;;51.60;32.40;;;6.30;89.50;;;;;;5094111;28;20196;-81
2020/12/18 12:44:42;;;;;;;48.57;31.40;;;6.20;89.60;;;;;;5094918;28;20188;-81
2020/12/18 12:47:08;;;;;;;57.35;34.45;;;6.20;90.30;;;;;;5086348;28;20508;-81
2020/12/18 12:49:45;;;;;;;57.13;32.03;;;6.30;89.70;;;;;;5104209;28;20227;-81
2020/12/18 12:52:11;;;;;;;49.55;32.30;;;6.10;90.40;;;;;;5104519;28;20223;-81
2020/12/18 12:54:36;;;;;;;49.30;30.10;;;6.10;90.60;;;;;;5106003;28;20218;-81
2020/12/18 12:57:02;;;;;;;51.13;30.73;;;6.10;90.70;;;;;;5102316;28;20195;-81
2020/12/18 12:59:30;;;;;;;48.33;29.97;;;6.10;90.50;;;;;;5094671;28;20192;-81
2020/12/18 13:02:05;;;;;;;50.42;29.45;;;6.00;91.10;;;;;;5091249;28;20267;-81
2020/12/18 13:04:31;;;;;;;50.13;30.98;;;6.10;90.50;;;;;;5105064;28;20729;-81